createdAt,value
2023-05-11T00:00:41.937Z,13.00
2023-05-11T00:03:09.552Z,13.00
2023-05-11T00:05:37.100Z,13.00
2023-05-11T00:08:04.647Z,13.00
2023-05-11T00:10:32.472Z,13.00
2023-05-11T00:12:59.828Z,13.00
2023-05-11T00:15:28.039Z,12.90
2023-05-11T00:17:55.429Z,13.00
2023-05-11T00:20:23.864Z,13.00
2023-05-11T00:22:51.362Z,13.10
2023-05-11T00:25:18.734Z,13.00
2023-05-11T00:27:46.274Z,13.00
2023-05-11T00:30:15.392Z,13.00
2023-05-11T00:32:43.786Z,12.90
2023-05-11T00:35:12.047Z,12.90
2023-05-11T00:37:40.023Z,12.80
2023-05-11T00:40:07.919Z,12.80
2023-05-11T00:42:35.404Z,12.80
2023-05-11T00:45:03.038Z,12.80
2023-05-11T00:47:30.740Z,12.90
2023-05-11T00:49:58.265Z,12.80
2023-05-11T00:52:28.944Z,12.80
2023-05-11T00:54:56.381Z,12.70
2023-05-11T00:57:23.872Z,12.60
2023-05-11T00:59:51.285Z,12.70
2023-05-11T01:02:19.268Z,12.60
2023-05-11T01:04:46.796Z,12.60
2023-05-11T01:07:32.517Z,12.50
2023-05-11T01:10:31.657Z,12.50
2023-05-11T01:13:35.005Z,12.40
2023-05-11T01:16:08.597Z,12.30
2023-05-11T01:18:43.838Z,12.30
2023-05-11T01:21:16.876Z,12.30
2023-05-11T01:24:29.541Z,12.20
2023-05-11T01:27:15.793Z,12.20
2023-05-11T01:30:04.784Z,12.10
2023-05-11T01:32:36.462Z,12.10
2023-05-11T01:35:12.110Z,12.10
2023-05-11T01:37:46.324Z,12.20
2023-05-11T01:40:18.898Z,12.20
2023-05-11T01:42:50.416Z,12.10
2023-05-11T01:45:19.135Z,12.10
2023-05-11T01:47:50.175Z,12.00
2023-05-11T01:50:21.930Z,12.10
2023-05-11T01:52:51.606Z,12.10
2023-05-11T01:55:22.268Z,12.20
2023-05-11T01:57:53.065Z,12.10
2023-05-11T02:00:22.485Z,12.10
2023-05-11T02:02:54.995Z,12.10
2023-05-11T02:05:24.599Z,12.10
2023-05-11T02:07:54.649Z,12.10
2023-05-11T02:10:26.001Z,12.00
2023-05-11T02:12:54.866Z,12.00
2023-05-11T02:15:25.064Z,12.00
2023-05-11T02:17:54.675Z,12.00
2023-05-11T02:20:24.452Z,12.10
2023-05-11T02:22:54.115Z,12.10
2023-05-11T02:25:23.800Z,12.10
2023-05-11T02:27:51.642Z,12.10
2023-05-11T02:30:19.427Z,12.10
2023-05-11T02:32:51.599Z,12.10
2023-05-11T02:35:24.400Z,12.20
2023-05-11T02:37:56.701Z,12.20
2023-05-11T02:40:32.022Z,12.20
2023-05-11T02:43:20.547Z,12.10
2023-05-11T02:46:11.592Z,12.10
2023-05-11T02:48:47.185Z,12.10
2023-05-11T02:51:18.440Z,12.10
2023-05-11T02:53:50.300Z,12.10
2023-05-11T02:56:19.946Z,12.10
2023-05-11T02:58:47.576Z,12.10
2023-05-11T03:01:21.908Z,12.10
2023-05-11T03:03:49.542Z,12.20
2023-05-11T03:06:16.982Z,12.20
2023-05-11T03:08:44.857Z,12.30
2023-05-11T03:11:14.879Z,12.30
2023-05-11T03:13:44.381Z,12.30
2023-05-11T03:16:13.597Z,12.20
2023-05-11T03:18:41.985Z,12.10
2023-05-11T03:21:09.510Z,12.10
2023-05-11T03:23:38.673Z,12.00
2023-05-11T03:26:07.456Z,12.00
2023-05-11T03:28:37.642Z,12.00
2023-05-11T03:31:08.323Z,12.00
2023-05-11T03:33:36.193Z,12.00
2023-05-11T03:36:08.431Z,12.00
2023-05-11T03:38:37.388Z,11.90
2023-05-11T03:41:06.079Z,11.80
2023-05-11T03:43:38.087Z,11.80
2023-05-11T03:46:06.583Z,11.90
2023-05-11T03:48:34.509Z,11.90
2023-05-11T03:51:04.149Z,11.90
2023-05-11T03:53:31.875Z,12.00
2023-05-11T03:55:59.322Z,12.00
2023-05-11T03:58:26.727Z,12.00
2023-05-11T04:00:54.382Z,11.90
2023-05-11T04:03:21.971Z,11.90
2023-05-11T04:05:49.407Z,11.90
2023-05-11T04:08:16.915Z,12.00
2023-05-11T04:10:47.199Z,12.10
2023-05-11T04:13:14.627Z,12.10
2023-05-11T04:15:42.933Z,12.10
2023-05-11T04:18:11.154Z,12.10
2023-05-11T04:20:38.567Z,12.10
2023-05-11T04:23:06.959Z,12.10
2023-05-11T04:25:35.143Z,12.10
2023-05-11T04:28:02.533Z,12.10
2023-05-11T04:30:29.926Z,12.10
2023-05-11T04:32:57.610Z,12.10
2023-05-11T04:35:26.027Z,12.10
2023-05-11T04:37:53.524Z,12.10
2023-05-11T04:40:21.091Z,12.10
2023-05-11T04:42:48.988Z,12.10
2023-05-11T04:45:19.076Z,12.10
2023-05-11T04:47:46.896Z,12.10
2023-05-11T04:50:14.436Z,12.10
2023-05-11T04:52:41.828Z,12.00
2023-05-11T04:55:09.465Z,12.10
2023-05-11T04:57:41.372Z,12.00
2023-05-11T05:00:09.933Z,12.00
2023-05-11T05:02:37.380Z,12.00
2023-05-11T05:05:05.168Z,12.00
2023-05-11T05:07:32.557Z,12.00
2023-05-11T05:09:59.942Z,11.90
2023-05-11T05:12:27.332Z,11.90
2023-05-11T05:14:54.726Z,11.90
2023-05-11T05:17:22.107Z,11.90
2023-05-11T05:19:49.556Z,12.00
2023-05-11T05:22:16.967Z,12.00
2023-05-11T05:24:44.311Z,12.10
2023-05-11T05:27:11.680Z,12.10
2023-05-11T05:29:39.086Z,12.10
2023-05-11T05:32:06.496Z,12.10
2023-05-11T05:34:33.872Z,12.20
2023-05-11T05:37:02.894Z,12.20
2023-05-11T05:39:32.410Z,12.20
2023-05-11T05:41:59.779Z,12.30
2023-05-11T05:44:27.174Z,12.30
2023-05-11T05:46:55.448Z,12.30
2023-05-11T05:49:22.827Z,12.30
2023-05-11T05:51:51.701Z,12.40
2023-05-11T05:54:19.191Z,12.40
2023-05-11T05:56:46.670Z,12.50
2023-05-11T05:59:14.409Z,12.40
2023-05-11T06:01:45.980Z,12.30
2023-05-11T06:04:15.191Z,12.30
2023-05-11T06:06:42.753Z,12.40
2023-05-11T06:09:10.142Z,12.50
2023-05-11T06:11:38.210Z,12.50
2023-05-11T06:14:05.805Z,12.60
2023-05-11T06:16:33.597Z,12.60
2023-05-11T06:19:01.145Z,12.70
2023-05-11T06:21:29.295Z,12.70
2023-05-11T06:23:56.880Z,12.70
2023-05-11T06:26:28.599Z,12.80
2023-05-11T06:28:56.329Z,12.70
2023-05-11T06:31:24.928Z,12.70
2023-05-11T06:33:53.378Z,12.70
2023-05-11T06:36:25.223Z,12.80
2023-05-11T06:38:52.600Z,12.70
2023-05-11T06:41:21.315Z,12.70
2023-05-11T06:43:48.773Z,12.70
2023-05-11T06:46:22.431Z,12.70
2023-05-11T06:48:50.394Z,12.70
2023-05-11T06:51:17.951Z,12.70
2023-05-11T06:53:45.509Z,12.80
2023-05-11T06:56:12.969Z,12.90
2023-05-11T06:58:40.329Z,13.00
2023-05-11T07:01:08.087Z,13.00
2023-05-11T07:03:35.800Z,13.10
2023-05-11T07:06:03.580Z,13.00
2023-05-11T07:08:31.002Z,13.00
2023-05-11T07:10:58.432Z,12.90
2023-05-11T07:13:25.894Z,12.90
2023-05-11T07:15:55.870Z,13.00
2023-05-11T07:18:24.877Z,13.10
2023-05-11T07:20:52.286Z,13.10
2023-05-11T07:23:19.658Z,13.10
2023-05-11T07:25:47.026Z,13.00
2023-05-11T07:28:14.396Z,13.00
2023-05-11T07:30:41.792Z,13.10
2023-05-11T07:33:09.254Z,13.20
2023-05-11T07:35:36.824Z,13.30
2023-05-11T07:38:06.162Z,13.30
2023-05-11T07:40:34.921Z,13.30
2023-05-11T07:43:02.306Z,13.30
2023-05-11T07:45:29.699Z,13.30
2023-05-11T07:47:57.115Z,13.30
2023-05-11T07:50:24.969Z,13.40
2023-05-11T07:52:52.575Z,13.40
2023-05-11T07:55:24.919Z,13.50
2023-05-11T07:57:54.434Z,13.50
2023-05-11T08:00:22.277Z,13.60
2023-05-11T08:02:49.711Z,13.60
2023-05-11T08:05:17.816Z,13.70
2023-05-11T08:07:45.781Z,13.80
2023-05-11T08:10:13.794Z,13.80
2023-05-11T08:12:41.370Z,13.90
2023-05-11T08:15:09.644Z,13.90
2023-05-11T08:17:37.476Z,14.00
2023-05-11T08:20:06.659Z,14.10
2023-05-11T08:22:34.369Z,14.20
2023-05-11T08:25:01.736Z,14.30
2023-05-11T08:27:29.157Z,14.20
2023-05-11T08:29:56.484Z,14.20
2023-05-11T08:32:23.962Z,14.30
2023-05-11T08:34:51.705Z,14.30
2023-05-11T08:37:19.568Z,14.30
2023-05-11T08:39:48.061Z,14.40
2023-05-11T08:42:16.648Z,14.40
2023-05-11T08:44:44.813Z,14.40
2023-05-11T08:49:43.184Z,14.60
2023-05-11T08:52:12.610Z,14.70
2023-05-11T08:54:40.082Z,14.80
2023-05-11T08:57:07.825Z,14.90
2023-05-11T08:59:35.796Z,15.00
2023-05-11T09:02:04.944Z,15.10
2023-05-11T09:04:33.620Z,15.10
2023-05-11T09:07:01.211Z,15.20
2023-05-11T09:09:28.692Z,15.20
2023-05-11T09:12:00.295Z,15.40
2023-05-11T09:14:27.917Z,15.30
2023-05-11T09:16:55.657Z,15.20
2023-05-11T09:19:23.180Z,15.10
2023-05-11T09:21:53.433Z,15.10
2023-05-11T09:24:21.545Z,15.10
2023-05-11T09:26:49.160Z,15.20
2023-05-11T09:29:20.962Z,15.10
2023-05-11T09:31:48.581Z,15.00
2023-05-11T09:34:19.874Z,15.00
2023-05-11T09:36:49.735Z,14.80
2023-05-11T09:39:35.070Z,14.90
2023-05-11T09:42:13.780Z,15.00
2023-05-11T09:44:44.406Z,15.00
2023-05-11T09:47:17.646Z,15.00
2023-05-11T09:49:46.703Z,14.90
2023-05-11T09:52:16.499Z,14.70
2023-05-11T09:54:48.534Z,14.80
2023-05-11T09:57:26.471Z,14.80
2023-05-11T09:59:55.446Z,15.00
2023-05-11T10:02:30.529Z,14.90
2023-05-11T10:05:00.462Z,14.90
2023-05-11T10:07:27.934Z,14.90
2023-05-11T10:09:57.263Z,14.90
2023-05-11T10:12:27.336Z,15.00
2023-05-11T10:15:10.588Z,15.10
2023-05-11T10:17:38.231Z,15.10
2023-05-11T10:20:06.761Z,15.20
2023-05-11T10:22:34.711Z,15.20
2023-05-11T10:25:05.997Z,15.20
2023-05-11T10:27:33.525Z,15.20
2023-05-11T10:30:02.360Z,15.20
2023-05-11T10:32:31.393Z,15.20
2023-05-11T10:35:00.281Z,15.20
2023-05-11T10:37:28.356Z,15.20
2023-05-11T10:39:57.187Z,15.10
2023-05-11T10:42:24.530Z,15.20
2023-05-11T10:45:21.678Z,15.20
2023-05-11T10:47:55.227Z,15.20
2023-05-11T10:50:43.454Z,15.40
2023-05-11T10:53:40.547Z,15.40
2023-05-11T10:56:22.753Z,15.50
2023-05-11T10:58:50.107Z,15.50
2023-05-11T11:01:40.747Z,15.50
2023-05-11T11:04:10.270Z,15.50
2023-05-11T11:06:43.061Z,15.60
2023-05-11T11:09:15.906Z,15.70
2023-05-11T11:11:50.304Z,15.70
2023-05-11T11:14:19.196Z,15.70
2023-05-11T11:17:11.729Z,15.60
2023-05-11T11:19:39.215Z,15.50
2023-05-11T11:22:26.826Z,15.50
2023-05-11T11:24:54.255Z,15.60
2023-05-11T11:27:41.908Z,15.70
2023-05-11T11:30:20.288Z,15.60
2023-05-11T11:32:52.339Z,15.70
2023-05-11T11:35:41.979Z,15.70
2023-05-11T11:38:14.860Z,15.70
2023-05-11T11:40:51.330Z,15.60
2023-05-11T11:43:26.994Z,15.70
2023-05-11T11:45:57.802Z,15.60
2023-05-11T11:48:35.172Z,15.60
2023-05-11T11:51:06.298Z,15.60
2023-05-11T11:53:36.526Z,15.70
2023-05-11T11:56:27.048Z,15.80
2023-05-11T11:59:01.625Z,15.90
2023-05-11T12:01:35.620Z,15.90
2023-05-11T12:04:06.061Z,15.90
2023-05-11T12:06:39.094Z,16.00
2023-05-11T12:09:07.530Z,16.00
2023-05-11T12:11:35.052Z,16.10
2023-05-11T12:14:03.007Z,16.30
2023-05-11T12:16:30.682Z,16.40
2023-05-11T12:19:01.926Z,16.40
2023-05-11T12:21:33.232Z,16.50
2023-05-11T12:24:05.709Z,16.30
2023-05-11T12:26:34.522Z,16.40
2023-05-11T12:29:15.507Z,16.60
2023-05-11T12:31:45.337Z,16.70
2023-05-11T12:34:17.762Z,16.80
2023-05-11T12:36:45.812Z,16.90
2023-05-11T12:39:24.231Z,17.00
2023-05-11T12:41:53.971Z,17.20
2023-05-11T12:44:24.125Z,17.20
2023-05-11T12:46:51.972Z,17.30
2023-05-11T12:49:26.311Z,17.30
2023-05-11T12:52:02.332Z,17.40
2023-05-11T12:54:32.532Z,17.40
2023-05-11T12:57:02.010Z,17.80
2023-05-11T12:59:40.875Z,17.90
2023-05-11T13:02:18.080Z,18.00
2023-05-11T13:04:46.856Z,18.10
2023-05-11T13:07:24.864Z,18.40
2023-05-11T13:10:00.047Z,18.20
2023-05-11T13:12:31.678Z,18.30
2023-05-11T13:15:13.267Z,18.30
2023-05-11T13:17:42.692Z,18.10
2023-05-11T13:20:18.754Z,17.80
2023-05-11T13:22:47.684Z,18.00
2023-05-11T13:25:24.327Z,17.90
2023-05-11T13:27:51.737Z,17.60
2023-05-11T13:30:19.097Z,17.70
2023-05-11T13:32:46.489Z,17.60
2023-05-11T13:35:14.019Z,17.40
2023-05-11T13:37:44.536Z,17.40
2023-05-11T13:40:12.570Z,17.40
2023-05-11T13:42:41.650Z,17.30
2023-05-11T13:45:09.481Z,17.00
2023-05-11T13:47:37.258Z,17.00
2023-05-11T13:50:05.355Z,16.90
2023-05-11T13:52:32.854Z,16.80
2023-05-11T13:55:00.398Z,16.80
2023-05-11T13:57:27.788Z,16.70
2023-05-11T13:59:55.390Z,16.80
2023-05-11T14:02:22.850Z,16.70
2023-05-11T14:04:50.344Z,16.50
2023-05-11T14:07:17.796Z,16.40
2023-05-11T14:09:47.706Z,16.30
2023-05-11T14:12:15.089Z,16.20
2023-05-11T14:14:42.464Z,16.20
2023-05-11T14:17:11.626Z,16.40
2023-05-11T14:19:39.960Z,16.50
2023-05-11T14:22:07.595Z,16.60
2023-05-11T14:24:34.970Z,16.60
2023-05-11T14:27:03.869Z,16.60
2023-05-11T14:29:31.381Z,16.70
2023-05-11T14:31:58.804Z,16.80
2023-05-11T14:34:26.242Z,16.90
2023-05-11T14:36:55.015Z,17.00
2023-05-11T14:39:22.489Z,17.10
2023-05-11T14:41:49.898Z,16.90
2023-05-11T14:44:17.280Z,16.70
2023-05-11T14:46:44.836Z,16.80
2023-05-11T14:49:12.504Z,16.60
2023-05-11T14:51:39.945Z,16.70
2023-05-11T14:54:07.312Z,16.60
2023-05-11T14:56:35.784Z,16.40
2023-05-11T14:59:03.695Z,16.30
2023-05-11T15:01:31.205Z,16.20
2023-05-11T15:03:58.774Z,16.20
2023-05-11T15:06:26.194Z,16.10
2023-05-11T15:08:53.633Z,16.20
2023-05-11T15:11:21.768Z,16.20
2023-05-11T15:13:49.352Z,16.20
2023-05-11T15:16:16.933Z,16.20
2023-05-11T15:18:44.451Z,16.10
2023-05-11T15:21:13.582Z,16.00
2023-05-11T15:23:41.069Z,15.80
2023-05-11T15:26:08.530Z,15.70
2023-05-11T15:28:35.909Z,15.60
2023-05-11T15:31:03.467Z,15.60
2023-05-11T15:33:30.952Z,15.50
2023-05-11T15:35:58.312Z,15.60
2023-05-11T15:38:25.655Z,15.60
2023-05-11T15:40:53.120Z,15.70
2023-05-11T15:43:20.471Z,15.80
2023-05-11T15:45:47.899Z,15.80
2023-05-11T15:48:15.821Z,15.80
2023-05-11T15:50:43.204Z,15.60
2023-05-11T15:53:10.629Z,15.50
2023-05-11T15:55:39.053Z,15.60
2023-05-11T15:58:10.513Z,15.50
2023-05-11T16:00:41.108Z,15.50
2023-05-11T16:03:08.569Z,15.40
2023-05-11T16:05:37.584Z,15.20
2023-05-11T16:08:06.475Z,15.20
2023-05-11T16:10:33.949Z,15.20
2023-05-11T16:13:01.340Z,15.20
2023-05-11T16:15:29.798Z,15.20
2023-05-11T16:17:58.436Z,15.10
2023-05-11T16:20:26.041Z,15.10
2023-05-11T16:22:53.658Z,15.00
2023-05-11T16:25:21.189Z,15.10
2023-05-11T16:27:50.416Z,15.10
2023-05-11T16:30:24.875Z,15.10
2023-05-11T16:32:53.571Z,15.10
2023-05-11T16:35:21.421Z,15.20
2023-05-11T16:37:49.071Z,15.20
2023-05-11T16:40:21.228Z,15.10
2023-05-11T16:42:49.151Z,15.10
2023-05-11T16:45:16.724Z,15.10
2023-05-11T16:47:45.533Z,15.10
2023-05-11T16:50:14.711Z,15.10
2023-05-11T16:52:42.562Z,15.00
2023-05-11T16:55:10.425Z,15.00
2023-05-11T16:57:38.132Z,15.00
2023-05-11T17:00:06.459Z,14.90
2023-05-11T17:02:34.252Z,15.00
2023-05-11T17:05:02.067Z,15.00
2023-05-11T17:07:29.425Z,15.00
2023-05-11T17:09:57.318Z,15.00
2023-05-11T17:12:24.963Z,14.90
2023-05-11T17:14:52.522Z,14.90
2023-05-11T17:17:19.963Z,14.90
2023-05-11T17:19:47.548Z,14.80
2023-05-11T17:22:15.009Z,14.80
2023-05-11T17:24:42.603Z,14.70
2023-05-11T17:27:10.038Z,14.70
2023-05-11T17:29:37.445Z,14.70
2023-05-11T17:32:05.295Z,14.70
2023-05-11T17:34:32.923Z,14.60
2023-05-11T17:37:00.471Z,14.50
2023-05-11T17:39:27.879Z,14.50
2023-05-11T17:41:55.274Z,14.50
2023-05-11T17:44:22.894Z,14.40
2023-05-11T17:46:50.806Z,14.40
2023-05-11T17:49:18.188Z,14.30
2023-05-11T17:51:47.220Z,14.20
2023-05-11T17:54:14.646Z,14.20
2023-05-11T17:56:42.021Z,14.10
2023-05-11T17:59:09.432Z,14.20
2023-05-11T18:01:36.857Z,14.20
2023-05-11T18:04:04.781Z,14.20
2023-05-11T18:06:32.678Z,14.20
2023-05-11T18:09:00.246Z,14.20
2023-05-11T18:11:27.826Z,14.20
2023-05-11T18:13:55.246Z,14.20
2023-05-11T18:16:22.813Z,14.20
2023-05-11T18:18:50.349Z,14.10
2023-05-11T18:21:18.618Z,14.20
2023-05-11T18:23:46.433Z,14.20
2023-05-11T18:26:18.047Z,14.20
2023-05-11T18:28:45.602Z,14.20
2023-05-11T18:31:13.416Z,14.10
2023-05-11T18:33:40.926Z,14.10
2023-05-11T18:36:08.330Z,14.10
2023-05-11T18:38:35.794Z,14.10
2023-05-11T18:41:08.025Z,14.00
2023-05-11T18:43:35.567Z,14.00
2023-05-11T18:46:08.390Z,14.00
2023-05-11T18:48:36.173Z,14.00
2023-05-11T18:51:03.705Z,14.00
2023-05-11T18:53:31.663Z,14.00
2023-05-11T18:55:59.095Z,14.00
2023-05-11T18:58:26.566Z,14.00
2023-05-11T19:00:54.110Z,14.00
2023-05-11T19:03:22.233Z,14.00
2023-05-11T19:05:50.495Z,13.90
2023-05-11T19:08:18.610Z,14.00
2023-05-11T19:10:47.925Z,14.00
2023-05-11T19:13:15.338Z,13.90
2023-05-11T19:15:42.808Z,13.90
2023-05-11T19:18:10.454Z,13.90
2023-05-11T19:20:39.234Z,13.90
2023-05-11T19:23:06.869Z,13.90
2023-05-11T19:25:34.247Z,13.80
2023-05-11T19:28:01.786Z,13.70
2023-05-11T19:30:29.163Z,13.80
2023-05-11T19:32:56.609Z,13.70
2023-05-11T19:35:24.225Z,13.70
2023-05-11T19:37:51.638Z,13.60
2023-05-11T19:40:44.751Z,13.60
2023-05-11T19:43:09.284Z,13.70
2023-05-11T19:45:37.394Z,13.80
2023-05-11T19:48:05.129Z,13.80
2023-05-11T19:50:32.716Z,13.90
2023-05-11T19:53:01.307Z,13.80
2023-05-11T19:55:32.547Z,13.80
2023-05-11T19:58:00.068Z,13.80
2023-05-11T20:00:27.775Z,13.80
2023-05-11T20:02:55.483Z,13.80
2023-05-11T20:05:22.927Z,13.80
2023-05-11T20:07:50.646Z,13.80
2023-05-11T20:10:18.177Z,13.70
2023-05-11T20:12:45.849Z,13.80
2023-05-11T20:15:15.500Z,13.70
2023-05-11T20:17:45.046Z,13.70
2023-05-11T20:20:13.251Z,13.60
2023-05-11T20:22:42.123Z,13.60
2023-05-11T20:25:17.037Z,13.70
2023-05-11T20:27:45.937Z,13.60
2023-05-11T20:30:13.853Z,13.70
2023-05-11T20:34:06.931Z,13.70
2023-05-11T20:35:28.727Z,13.70
2023-05-11T20:37:56.166Z,13.60
2023-05-11T20:40:25.335Z,13.60
2023-05-11T20:42:52.791Z,13.60
2023-05-11T20:45:20.196Z,13.60
2023-05-11T20:47:47.615Z,13.60
2023-05-11T20:50:15.318Z,13.50
2023-05-11T20:52:42.773Z,13.40
2023-05-11T20:55:10.234Z,13.40
2023-05-11T20:57:37.641Z,13.40
2023-05-11T21:00:07.679Z,13.40
2023-05-11T21:02:35.385Z,13.40
2023-05-11T21:05:03.938Z,13.40
2023-05-11T21:07:31.441Z,13.40
2023-05-11T21:09:58.912Z,13.40
2023-05-11T21:12:26.401Z,13.40
2023-05-11T21:14:56.228Z,13.40
2023-05-11T21:17:24.416Z,13.40
2023-05-11T21:19:51.865Z,13.50
2023-05-11T21:22:19.307Z,13.40
2023-05-11T21:24:46.693Z,13.40
2023-05-11T21:27:15.089Z,13.40
2023-05-11T21:29:42.448Z,13.40
2023-05-11T21:32:10.258Z,13.50
2023-05-11T21:34:38.409Z,13.50
2023-05-11T21:37:05.865Z,13.50
2023-05-11T21:39:33.274Z,13.50
2023-05-11T21:42:00.728Z,13.50
2023-05-11T21:44:28.412Z,13.50
2023-05-11T21:46:55.891Z,13.50
2023-05-11T21:49:23.382Z,13.40
2023-05-11T21:51:51.124Z,13.40
2023-05-11T21:54:22.242Z,13.40
2023-05-11T21:56:50.312Z,13.30
2023-05-11T21:59:18.619Z,13.30
2023-05-11T22:01:47.926Z,13.30
2023-05-11T22:04:15.431Z,13.30
2023-05-11T22:06:43.661Z,13.30
2023-05-11T22:09:11.640Z,13.20
2023-05-11T22:11:39.637Z,13.20
2023-05-11T22:14:07.060Z,13.20
2023-05-11T22:16:34.551Z,13.20
2023-05-11T22:19:02.029Z,13.20
2023-05-11T22:21:29.494Z,13.10
2023-05-11T22:23:56.837Z,13.10
2023-05-11T22:26:24.225Z,13.20
2023-05-11T22:28:52.290Z,13.20
2023-05-11T22:31:19.689Z,13.20
2023-05-11T22:33:47.092Z,13.20
2023-05-11T22:36:15.302Z,13.10
2023-05-11T22:38:42.703Z,13.10
2023-05-11T22:41:10.147Z,13.10
2023-05-11T22:43:37.698Z,13.10
2023-05-11T22:46:05.248Z,13.10
2023-05-11T22:48:32.885Z,13.10
2023-05-11T22:51:00.229Z,13.10
2023-05-11T22:53:27.628Z,13.10
2023-05-11T22:55:55.143Z,13.20
2023-05-11T22:58:22.781Z,13.20
2023-05-11T23:00:54.663Z,13.20
2023-05-11T23:03:22.498Z,13.10
2023-05-11T23:05:49.971Z,13.10
2023-05-11T23:08:17.524Z,13.10
2023-05-11T23:10:45.004Z,13.10
2023-05-11T23:13:12.803Z,13.10
2023-05-11T23:15:40.769Z,13.20
2023-05-11T23:18:08.245Z,13.30
2023-05-11T23:20:35.833Z,13.20
2023-05-11T23:23:03.312Z,13.30
2023-05-11T23:25:31.106Z,13.30
2023-05-11T23:27:58.557Z,13.30
2023-05-11T23:30:26.207Z,13.20
2023-05-11T23:32:53.616Z,13.20
2023-05-11T23:35:21.046Z,13.10
2023-05-11T23:37:48.445Z,13.10
2023-05-11T23:40:15.912Z,13.10
2023-05-11T23:42:43.656Z,13.10
2023-05-11T23:45:11.550Z,13.10
2023-05-11T23:47:39.226Z,13.10
2023-05-11T23:50:07.431Z,13.10
2023-05-11T23:52:35.089Z,13.10
2023-05-11T23:55:02.607Z,13.10
2023-05-11T23:57:29.950Z,13.10
2023-05-11T23:59:57.485Z,13.20
